createdAt,value
2023-02-12T00:02:08.933Z,100339.00
2023-02-12T00:04:56.497Z,100335.00
2023-02-12T00:07:44.027Z,100348.00
2023-02-12T00:10:31.621Z,100341.00
2023-02-12T00:13:19.282Z,100339.00
2023-02-12T00:16:16.292Z,100339.00
2023-02-12T00:19:04.600Z,100334.00
2023-02-12T00:21:52.186Z,100332.00
2023-02-12T00:24:39.785Z,100339.00
2023-02-12T00:27:27.312Z,100342.00
2023-02-12T00:30:15.192Z,100332.00
2023-02-12T00:33:02.945Z,100341.00
2023-02-12T00:35:59.322Z,100352.00
2023-02-12T00:38:48.003Z,100353.00
2023-02-12T00:41:35.542Z,100355.00
2023-02-12T00:44:23.159Z,100346.00
2023-02-12T00:47:10.838Z,100347.00
2023-02-12T00:49:58.347Z,100361.00
2023-02-12T00:52:45.911Z,100368.00
2023-02-12T00:55:34.326Z,100368.00
2023-02-12T00:58:22.372Z,100356.00
2023-02-12T01:01:10.055Z,100362.00
2023-02-12T01:03:57.788Z,100370.00
2023-02-12T01:06:45.656Z,100355.00
2023-02-12T01:09:33.394Z,100350.00
2023-02-12T01:12:20.945Z,100357.00
2023-02-12T01:15:10.582Z,100355.00
2023-02-12T01:17:58.116Z,100357.00
2023-02-12T01:20:45.661Z,100346.00
2023-02-12T01:23:33.716Z,100347.00
2023-02-12T01:26:22.806Z,100344.00
2023-02-12T01:29:11.259Z,100343.00
2023-02-12T01:31:58.921Z,100339.00
2023-02-12T01:34:46.576Z,100340.00
2023-02-12T01:37:37.776Z,100335.00
2023-02-12T01:40:25.349Z,100332.00
2023-02-12T01:43:13.309Z,100334.00
2023-02-12T01:46:02.693Z,100338.00
2023-02-12T01:48:50.661Z,100335.00
2023-02-12T01:51:39.539Z,100335.00
2023-02-12T01:54:29.465Z,100345.00
2023-02-12T01:57:19.344Z,100353.00
2023-02-12T02:00:15.096Z,100357.00
2023-02-12T02:03:03.102Z,100352.00
2023-02-12T02:06:03.800Z,100352.00
2023-02-12T02:08:51.828Z,100345.00
2023-02-12T02:11:57.901Z,100357.00
2023-02-12T02:14:47.593Z,100356.00
2023-02-12T02:17:51.474Z,100369.00
2023-02-12T02:20:59.816Z,100370.00
2023-02-12T02:24:35.493Z,100379.00
2023-02-12T02:27:25.712Z,100381.00
2023-02-12T02:30:36.480Z,100373.00
2023-02-12T02:33:52.282Z,100360.00
2023-02-12T02:37:01.456Z,100358.00
2023-02-12T02:40:07.497Z,100360.00
2023-02-12T02:43:15.705Z,100355.00
2023-02-12T02:46:15.056Z,100377.00
2023-02-12T02:49:23.171Z,100371.00
2023-02-12T02:52:18.874Z,100373.00
2023-02-12T02:55:13.200Z,100372.00
2023-02-12T02:58:09.581Z,100377.00
2023-02-12T03:01:30.637Z,100372.00
2023-02-12T03:04:31.061Z,100370.00
2023-02-12T03:07:28.621Z,100353.00
2023-02-12T03:10:29.545Z,100358.00
2023-02-12T03:14:08.440Z,100351.00
2023-02-12T03:17:05.490Z,100367.00
2023-02-12T03:20:02.181Z,100367.00
2023-02-12T03:23:02.245Z,100367.00
2023-02-12T03:26:12.089Z,100376.00
2023-02-12T03:28:59.664Z,100381.00
2023-02-12T03:32:17.226Z,100399.00
2023-02-12T03:35:16.381Z,100404.00
2023-02-12T03:38:30.817Z,100406.00
2023-02-12T03:41:44.069Z,100410.00
2023-02-12T03:44:58.161Z,100402.00
2023-02-12T03:48:11.358Z,100407.00
2023-02-12T03:51:16.508Z,100400.00
2023-02-12T03:54:07.436Z,100408.00
2023-02-12T03:57:30.799Z,100402.00
2023-02-12T04:00:22.846Z,100423.00
2023-02-12T04:03:10.588Z,100419.00
2023-02-12T04:05:58.334Z,100422.00
2023-02-12T04:08:45.944Z,100423.00
2023-02-12T04:11:57.987Z,100423.00
2023-02-12T04:15:37.860Z,100426.00
2023-02-12T04:18:45.023Z,100422.00
2023-02-12T04:22:00.578Z,100420.00
2023-02-12T04:25:16.154Z,100423.00
2023-02-12T04:28:33.748Z,100419.00
2023-02-12T04:32:03.300Z,100420.00
2023-02-12T04:35:15.892Z,100420.00
2023-02-12T04:38:38.681Z,100426.00
2023-02-12T04:41:27.074Z,100430.00
2023-02-12T04:44:24.565Z,100430.00
2023-02-12T04:47:17.459Z,100429.00
2023-02-12T04:50:06.373Z,100429.00
2023-02-12T04:52:53.976Z,100434.00
2023-02-12T04:55:41.554Z,100423.00
2023-02-12T04:58:29.050Z,100443.00
2023-02-12T05:01:16.763Z,100438.00
2023-02-12T05:04:06.375Z,100435.00
2023-02-12T05:06:53.895Z,100451.00
2023-02-12T05:09:41.419Z,100451.00
2023-02-12T05:12:28.899Z,100449.00
2023-02-12T05:15:16.519Z,100457.00
2023-02-12T05:18:04.250Z,100458.00
2023-02-12T05:21:03.997Z,100464.00
2023-02-12T05:23:51.597Z,100473.00
2023-02-12T05:26:39.159Z,100477.00
2023-02-12T05:29:26.730Z,100474.00
2023-02-12T05:32:14.436Z,100488.00
2023-02-12T05:35:02.042Z,100485.00
2023-02-12T05:37:49.625Z,100488.00
2023-02-12T05:40:37.612Z,100493.00
2023-02-12T05:43:25.265Z,100485.00
2023-02-12T05:46:13.242Z,100487.00
2023-02-12T05:49:00.915Z,100492.00
2023-02-12T05:51:50.005Z,100489.00
2023-02-12T05:54:37.546Z,100487.00
2023-02-12T05:57:25.091Z,100493.00
2023-02-12T06:00:14.806Z,100497.00
2023-02-12T06:03:02.541Z,100502.00
2023-02-12T06:05:53.897Z,100492.00
2023-02-12T06:08:41.918Z,100506.00
2023-02-12T06:11:29.872Z,100498.00
2023-02-12T06:14:20.422Z,100509.00
2023-02-12T06:17:08.215Z,100515.00
2023-02-12T06:19:55.694Z,100517.00
2023-02-12T06:22:43.254Z,100518.00
2023-02-12T06:25:30.720Z,100519.00
2023-02-12T06:28:18.506Z,100522.00
2023-02-12T06:31:06.422Z,100514.00
2023-02-12T06:33:56.477Z,100523.00
2023-02-12T06:36:46.675Z,100526.00
2023-02-12T06:39:34.220Z,100530.00
2023-02-12T06:42:21.794Z,100532.00
2023-02-12T06:45:09.757Z,100524.00
2023-02-12T06:47:57.289Z,100529.00
2023-02-12T06:50:44.954Z,100541.00
2023-02-12T06:53:35.070Z,100541.00
2023-02-12T06:56:26.649Z,100545.00
2023-02-12T06:59:17.002Z,100536.00
2023-02-12T07:02:04.566Z,100542.00
2023-02-12T07:04:52.155Z,100543.00
2023-02-12T07:07:39.731Z,100555.00
2023-02-12T07:10:27.370Z,100558.00
2023-02-12T07:13:14.930Z,100556.00
2023-02-12T07:16:12.848Z,100567.00
2023-02-12T07:19:00.451Z,100566.00
2023-02-12T07:21:48.007Z,100566.00
2023-02-12T07:24:35.825Z,100569.00
2023-02-12T07:27:23.319Z,100563.00
2023-02-12T07:30:11.469Z,100569.00
2023-02-12T07:32:59.004Z,100559.00
2023-02-12T07:35:46.954Z,100560.00
2023-02-12T07:38:39.642Z,100560.00
2023-02-12T07:41:34.050Z,100556.00
2023-02-12T07:44:21.831Z,100553.00
2023-02-12T07:47:09.440Z,100558.00
2023-02-12T07:49:56.928Z,100557.00
2023-02-12T07:52:44.840Z,100561.00
2023-02-12T07:55:32.331Z,100556.00
2023-02-12T07:58:19.967Z,100558.00
2023-02-12T08:01:15.946Z,100564.00
2023-02-12T08:04:08.655Z,100566.00
2023-02-12T08:06:57.467Z,100569.00
2023-02-12T08:09:44.939Z,100571.00
2023-02-12T08:12:32.586Z,100570.00
2023-02-12T08:15:20.122Z,100576.00
2023-02-12T08:18:07.624Z,100569.00
2023-02-12T08:20:55.181Z,100569.00
2023-02-12T08:23:42.731Z,100564.00
2023-02-12T08:26:33.876Z,100566.00
2023-02-12T08:29:28.247Z,100560.00
2023-02-12T08:32:17.318Z,100558.00
2023-02-12T08:35:05.032Z,100575.00
2023-02-12T08:37:52.961Z,100580.00
2023-02-12T08:40:40.519Z,100561.00
2023-02-12T08:43:28.212Z,100575.00
2023-02-12T08:46:22.108Z,100574.00
2023-02-12T08:49:18.045Z,100577.00
2023-02-12T08:52:05.582Z,100576.00
2023-02-12T08:54:53.262Z,100588.00
2023-02-12T08:57:42.980Z,100589.00
2023-02-12T09:00:30.807Z,100596.00
2023-02-12T09:03:18.375Z,100597.00
2023-02-12T09:06:08.001Z,100592.00
2023-02-12T09:08:56.265Z,100592.00
2023-02-12T09:11:45.104Z,100593.00
2023-02-12T09:14:32.743Z,100593.00
2023-02-12T09:17:20.233Z,100583.00
2023-02-12T09:20:08.501Z,100593.00
2023-02-12T09:22:56.016Z,100589.00
2023-02-12T09:25:45.752Z,100603.00
2023-02-12T09:28:34.067Z,100600.00
2023-02-12T09:31:31.093Z,100607.00
2023-02-12T09:34:18.990Z,100609.00
2023-02-12T09:37:06.542Z,100615.00
2023-02-12T09:39:54.106Z,100624.00
2023-02-12T09:43:18.559Z,100623.00
2023-02-12T09:46:38.005Z,100623.00
2023-02-12T09:50:21.306Z,100630.00
2023-02-12T09:53:21.567Z,100633.00
2023-02-12T09:56:20.741Z,100632.00
2023-02-12T09:59:10.020Z,100637.00
2023-02-12T10:01:59.880Z,100640.00
2023-02-12T10:05:00.771Z,100639.00
2023-02-12T10:08:22.170Z,100644.00
2023-02-12T10:11:44.084Z,100638.00
2023-02-12T10:15:01.489Z,100643.00
2023-02-12T10:18:06.447Z,100640.00
2023-02-12T10:21:39.755Z,100637.00
2023-02-12T10:24:58.017Z,100635.00
2023-02-12T10:27:54.262Z,100631.00
2023-02-12T10:31:00.065Z,100624.00
2023-02-12T10:33:51.096Z,100638.00
2023-02-12T10:36:49.902Z,100630.00
2023-02-12T10:39:46.274Z,100634.00
2023-02-12T10:42:44.635Z,100637.00
2023-02-12T10:45:40.073Z,100629.00
2023-02-12T10:48:40.302Z,100631.00
2023-02-12T10:52:39.273Z,100626.00
2023-02-12T10:55:33.689Z,100621.00
2023-02-12T10:58:25.135Z,100623.00
2023-02-12T11:01:22.331Z,100629.00
2023-02-12T11:04:33.900Z,100632.00
2023-02-12T11:07:23.368Z,100637.00
2023-02-12T11:10:26.206Z,100631.00
2023-02-12T11:13:45.895Z,100627.00
2023-02-12T11:16:44.828Z,100615.00
2023-02-12T11:19:35.232Z,100613.00
2023-02-12T11:22:22.806Z,100607.00
2023-02-12T11:25:17.017Z,100616.00
2023-02-12T11:28:18.359Z,100605.00
2023-02-12T11:31:27.460Z,100604.00
2023-02-12T11:34:20.362Z,100608.00
2023-02-12T11:37:18.911Z,100614.00
2023-02-12T11:40:07.651Z,100612.00
2023-02-12T11:43:05.979Z,100610.00
2023-02-12T11:45:57.227Z,100612.00
2023-02-12T11:48:47.694Z,100605.00
2023-02-12T11:51:37.902Z,100606.00
2023-02-12T11:54:29.678Z,100607.00
2023-02-12T11:57:47.935Z,100599.00
2023-02-12T12:00:47.898Z,100602.00
2023-02-12T12:03:46.761Z,100600.00
2023-02-12T12:06:37.100Z,100601.00
2023-02-12T12:09:35.217Z,100590.00
2023-02-12T12:12:39.174Z,100594.00
2023-02-12T12:15:55.115Z,100594.00
2023-02-12T12:19:11.378Z,100592.00
2023-02-12T12:22:16.530Z,100598.00
2023-02-12T12:25:22.142Z,100599.00
2023-02-12T12:28:44.998Z,100591.00
2023-02-12T12:31:40.501Z,100583.00
2023-02-12T12:34:29.640Z,100577.00
2023-02-12T12:37:56.102Z,100586.00
2023-02-12T12:41:18.592Z,100581.00
2023-02-12T12:44:24.897Z,100578.00
2023-02-12T12:47:51.002Z,100576.00
2023-02-12T12:50:50.633Z,100571.00
2023-02-12T12:54:07.617Z,100561.00
2023-02-12T12:57:44.463Z,100563.00
2023-02-12T13:01:27.035Z,100567.00
2023-02-12T13:04:45.123Z,100563.00
2023-02-12T13:08:28.259Z,100565.00
2023-02-12T13:11:39.151Z,100555.00
2023-02-12T13:14:44.082Z,100552.00
2023-02-12T13:17:50.392Z,100556.00
2023-02-12T13:20:48.949Z,100570.00
2023-02-12T13:23:57.227Z,100573.00
2023-02-12T13:27:07.352Z,100559.00
2023-02-12T13:30:32.030Z,100566.00
2023-02-12T13:33:29.515Z,100558.00
2023-02-12T13:36:17.222Z,100565.00
2023-02-12T13:39:22.282Z,100563.00
2023-02-12T13:42:24.330Z,100566.00
2023-02-12T13:45:24.894Z,100563.00
2023-02-12T13:48:36.866Z,100557.00
2023-02-12T13:51:54.171Z,100561.00
2023-02-12T13:54:59.991Z,100556.00
2023-02-12T13:58:11.854Z,100555.00
2023-02-12T14:01:14.672Z,100549.00
2023-02-12T14:04:59.938Z,100555.00
2023-02-12T14:07:54.250Z,100548.00
2023-02-12T14:10:42.905Z,100553.00
2023-02-12T14:13:45.376Z,100549.00
2023-02-12T14:16:32.856Z,100556.00
2023-02-12T14:19:50.628Z,100546.00
2023-02-12T14:22:44.158Z,100547.00
2023-02-12T14:25:41.562Z,100543.00
2023-02-12T14:28:55.009Z,100549.00
2023-02-12T14:31:42.787Z,100547.00
2023-02-12T14:34:36.314Z,100541.00
2023-02-12T14:37:38.007Z,100541.00
2023-02-12T14:40:44.868Z,100539.00
2023-02-12T14:43:58.083Z,100540.00
2023-02-12T14:46:58.156Z,100537.00
2023-02-12T14:49:52.269Z,100539.00
2023-02-12T14:52:47.034Z,100542.00
2023-02-12T14:55:40.340Z,100543.00
2023-02-12T14:58:31.242Z,100539.00
2023-02-12T15:01:32.266Z,100534.00
2023-02-12T15:04:38.062Z,100543.00
2023-02-12T15:08:24.130Z,100541.00
2023-02-12T15:11:35.764Z,100541.00
2023-02-12T15:14:32.111Z,100540.00
2023-02-12T15:17:29.995Z,100548.00
2023-02-12T15:20:25.851Z,100542.00
2023-02-12T15:23:40.145Z,100541.00
2023-02-12T15:26:30.646Z,100543.00
2023-02-12T15:29:44.134Z,100534.00
2023-02-12T15:32:35.199Z,100547.00
2023-02-12T15:35:37.989Z,100549.00
2023-02-12T15:38:38.246Z,100552.00
2023-02-12T15:41:36.873Z,100551.00
2023-02-12T15:44:29.303Z,100559.00
2023-02-12T15:47:17.385Z,100556.00
2023-02-12T15:50:05.676Z,100562.00
2023-02-12T15:52:54.381Z,100554.00
2023-02-12T15:55:47.801Z,100554.00
2023-02-12T15:58:47.761Z,100550.00
2023-02-12T16:01:35.829Z,100554.00
2023-02-12T16:04:25.980Z,100561.00
2023-02-12T16:07:14.603Z,100558.00
2023-02-12T16:10:03.246Z,100556.00
2023-02-12T16:12:51.939Z,100557.00
2023-02-12T16:15:40.532Z,100563.00
2023-02-12T16:18:28.121Z,100559.00
2023-02-12T16:21:19.483Z,100565.00
2023-02-12T16:24:27.426Z,100566.00
2023-02-12T16:27:25.326Z,100562.00
2023-02-12T16:30:34.916Z,100559.00
2023-02-12T16:33:39.527Z,100571.00
2023-02-12T16:36:31.584Z,100580.00
2023-02-12T16:40:14.110Z,100581.00
2023-02-12T16:43:22.037Z,100590.00
2023-02-12T16:46:11.727Z,100582.00
2023-02-12T16:49:02.433Z,100580.00
2023-02-12T16:51:51.924Z,100583.00
2023-02-12T16:54:39.494Z,100590.00
2023-02-12T16:57:27.015Z,100593.00
2023-02-12T17:00:18.025Z,100596.00
2023-02-12T17:03:06.077Z,100593.00
2023-02-12T17:05:53.668Z,100604.00
2023-02-12T17:08:41.492Z,100598.00
2023-02-12T17:11:30.049Z,100604.00
2023-02-12T17:14:20.596Z,100602.00
2023-02-12T17:17:08.318Z,100613.00
2023-02-12T17:19:55.871Z,100616.00
2023-02-12T17:22:54.089Z,100607.00
2023-02-12T17:25:41.731Z,100606.00
2023-02-12T17:28:29.667Z,100604.00
2023-02-12T17:31:17.776Z,100613.00
2023-02-12T17:34:05.719Z,100608.00
2023-02-12T17:36:53.533Z,100607.00
2023-02-12T17:39:41.105Z,100602.00
2023-02-12T17:42:28.756Z,100605.00
2023-02-12T17:45:17.311Z,100605.00
2023-02-12T17:48:05.382Z,100605.00
2023-02-12T17:50:59.471Z,100603.00
2023-02-12T17:53:47.833Z,100597.00
2023-02-12T17:56:35.637Z,100603.00
2023-02-12T17:59:23.252Z,100597.00
2023-02-12T18:02:12.694Z,100609.00
2023-02-12T18:05:00.255Z,100612.00
2023-02-12T18:07:47.876Z,100617.00
2023-02-12T18:10:42.022Z,100612.00
2023-02-12T18:13:30.097Z,100625.00
2023-02-12T18:16:17.775Z,100623.00
2023-02-12T18:19:05.992Z,100631.00
2023-02-12T18:21:53.790Z,100631.00
2023-02-12T18:24:41.657Z,100628.00
2023-02-12T18:27:29.261Z,100637.00
2023-02-12T18:30:17.238Z,100641.00
2023-02-12T18:33:06.398Z,100629.00
2023-02-12T18:36:05.254Z,100637.00
2023-02-12T18:38:53.400Z,100636.00
2023-02-12T18:41:40.933Z,100629.00
2023-02-12T18:44:28.504Z,100627.00
2023-02-12T18:47:17.633Z,100635.00
2023-02-12T18:50:07.389Z,100637.00
2023-02-12T18:52:55.462Z,100630.00
2023-02-12T18:55:43.004Z,100636.00
2023-02-12T18:58:30.747Z,100637.00
2023-02-12T19:01:20.973Z,100636.00
2023-02-12T19:04:12.914Z,100634.00
2023-02-12T19:07:00.478Z,100640.00
2023-02-12T19:09:48.014Z,100635.00
2023-02-12T19:12:35.580Z,100638.00
2023-02-12T19:15:23.709Z,100640.00
2023-02-12T19:18:11.206Z,100634.00
2023-02-12T19:20:59.010Z,100637.00
2023-02-12T19:23:47.032Z,100642.00
2023-02-12T19:26:36.265Z,100635.00
2023-02-12T19:29:24.172Z,100645.00
2023-02-12T19:32:11.696Z,100633.00
2023-02-12T19:34:59.356Z,100637.00
2023-02-12T19:37:46.881Z,100631.00
2023-02-12T19:40:34.415Z,100633.00
2023-02-12T19:43:21.958Z,100627.00
2023-02-12T19:46:17.888Z,100631.00
2023-02-12T19:49:06.897Z,100622.00
2023-02-12T19:51:54.900Z,100626.00
2023-02-12T19:54:45.306Z,100620.00
2023-02-12T19:57:34.232Z,100616.00
2023-02-12T20:00:21.956Z,100618.00
2023-02-12T20:03:09.565Z,100617.00
2023-02-12T20:06:03.961Z,100617.00
2023-02-12T20:08:52.432Z,100622.00
2023-02-12T20:11:40.770Z,100624.00
2023-02-12T20:14:28.823Z,100622.00
2023-02-12T20:17:16.700Z,100622.00
2023-02-12T20:20:06.441Z,100631.00
2023-02-12T20:22:53.914Z,100630.00
2023-02-12T20:25:45.477Z,100628.00
2023-02-12T20:28:34.752Z,100625.00
2023-02-12T20:31:27.690Z,100629.00
2023-02-12T20:34:18.706Z,100630.00
2023-02-12T20:37:07.032Z,100637.00
2023-02-12T20:39:54.538Z,100646.00
2023-02-12T20:42:42.456Z,100645.00
2023-02-12T20:45:30.137Z,100645.00
2023-02-12T20:48:19.655Z,100642.00
2023-02-12T20:51:11.532Z,100649.00
2023-02-12T20:54:03.025Z,100648.00
2023-02-12T20:56:51.038Z,100649.00
2023-02-12T20:59:39.014Z,100649.00
2023-02-12T21:02:26.944Z,100654.00
2023-02-12T21:05:15.209Z,100649.00
2023-02-12T21:08:03.105Z,100650.00
2023-02-12T21:10:58.791Z,100650.00
2023-02-12T21:13:58.945Z,100642.00
2023-02-12T21:16:52.612Z,100642.00
2023-02-12T21:19:40.283Z,100642.00
2023-02-12T21:22:28.296Z,100637.00
2023-02-12T21:25:16.301Z,100640.00
2023-02-12T21:28:04.373Z,100642.00
2023-02-12T21:30:51.971Z,100644.00
2023-02-12T21:33:42.849Z,100642.00
2023-02-12T21:36:37.569Z,100639.00
2023-02-12T21:39:28.788Z,100642.00
2023-02-12T21:42:16.760Z,100635.00
2023-02-12T21:45:06.405Z,100637.00
2023-02-12T21:47:54.443Z,100635.00
2023-02-12T21:50:42.061Z,100636.00
2023-02-12T21:53:29.737Z,100635.00
2023-02-12T21:56:19.647Z,100642.00
2023-02-12T21:59:08.969Z,100643.00
2023-02-12T22:01:58.835Z,100641.00
2023-02-12T22:04:46.515Z,100637.00
2023-02-12T22:07:34.587Z,100634.00
2023-02-12T22:10:22.303Z,100640.00
2023-02-12T22:13:09.876Z,100638.00
2023-02-12T22:15:58.688Z,100646.00
2023-02-12T22:18:55.640Z,100645.00
2023-02-12T22:21:44.916Z,100641.00
2023-02-12T22:24:32.697Z,100646.00
2023-02-12T22:27:20.236Z,100645.00
2023-02-12T22:30:08.710Z,100648.00
2023-02-12T22:32:56.423Z,100644.00
2023-02-12T22:35:44.352Z,100647.00
2023-02-12T22:38:34.946Z,100640.00
2023-02-12T22:41:22.890Z,100640.00
2023-02-12T22:44:13.495Z,100653.00
2023-02-12T22:47:01.769Z,100646.00
2023-02-12T22:49:52.450Z,100653.00
2023-02-12T22:52:40.258Z,100639.00
2023-02-12T22:55:31.343Z,100637.00
2023-02-12T22:58:19.320Z,100635.00
2023-02-12T23:01:12.953Z,100639.00
2023-02-12T23:04:00.734Z,100638.00
2023-02-12T23:06:48.519Z,100640.00
2023-02-12T23:09:36.421Z,100637.00
2023-02-12T23:12:26.030Z,100633.00
2023-02-12T23:15:13.605Z,100629.00
2023-02-12T23:18:01.424Z,100634.00
2023-02-12T23:20:51.952Z,100637.00
2023-02-12T23:23:40.523Z,100623.00
2023-02-12T23:26:30.522Z,100623.00
2023-02-12T23:29:18.209Z,100621.00
2023-02-12T23:32:06.534Z,100613.00
2023-02-12T23:34:54.138Z,100612.00
2023-02-12T23:37:41.657Z,100625.00
2023-02-12T23:40:29.609Z,100627.00
2023-02-12T23:43:17.591Z,100623.00
2023-02-12T23:46:05.807Z,100624.00
2023-02-12T23:48:53.621Z,100618.00
2023-02-12T23:51:41.277Z,100620.00
2023-02-12T23:54:29.343Z,100623.00
2023-02-12T23:57:17.080Z,100618.00
